Data for 01/27/2008

Time Sea-Level Adjusted Pressure Absolute Pressure Temperature Relative Humidity Dew Point   
(mb) (inHg) (mb) (inHg) (C) (F) (%) (C) (F)
00:05 1010 29.83 840 24.81 2.2 36 47 -8 17.6
00:10 1010 29.83 839 24.78 2.3 36.1 47 -7.9 17.8
00:15 1010 29.83 839 24.78 2.4 36.3 44 -8.6 16.6
00:20 1010 29.83 839 24.78 2.6 36.7 45 -8.1 17.5
00:25 1010 29.83 839 24.78 2.5 36.4 45 -8.3 17.1
00:30 1010 29.83 839 24.78 2.4 36.4 44 -8.7 16.4
00:35 1010 29.83 839 24.78 2.5 36.5 45 -8.3 17.1
00:40 1010 29.83 839 24.78 2.3 36.2 44 -8.6 16.5
00:45 1010 29.83 839 24.78 2.4 36.3 43 -8.9 16
00:50 1010 29.83 839 24.78 2.5 36.5 42 -9 15.7
00:55 1010 29.83 839 24.78 2.6 36.7 42 -9.1 15.6
01:00 1010 29.83 839 24.78 2.6 36.6 39 -10 14
01:05 1010 29.83 839 24.78 3.2 37.8 37 -10 14
01:10 1010 29.83 840 24.81 3.4 38.1 36 -10.2 13.6
01:15 1010 29.83 840 24.81 3.1 37.5 38 -9.8 14.4
01:20 1010 29.83 840 24.81 3 37.4 36 -10.8 12.5
01:25 1010 29.83 840 24.81 3.6 38.5 32 -11.4 11.4
01:30 1010 29.83 840 24.81 4 39.3 33 -10.9 12.3
01:35 1010 29.83 840 24.81 4.1 39.4 33 -10.9 12.3
01:40 1010 29.83 840 24.81 4.2 39.6 32 -10.9 12.3
01:45 1010 29.83 840 24.81 4.3 39.7 32 -10.9 12.4
01:50 1010 29.83 840 24.81 4.1 39.4 32 -11 12.2
01:55 1010 29.83 840 24.81 4.1 39.5 32 -11 12.3
02:00 1010 29.83 839 24.78 4.2 39.6 32 -11 12.2
02:05 1010 29.83 839 24.78 4.4 39.9 31 -11.3 11.7
02:10 1010 29.83 839 24.78 4.4 39.9 30 -11.6 11.1
02:15 1010 29.83 839 24.78 4.5 40 31 -11.2 11.9
02:20 1010 29.83 839 24.78 4.3 39.7 32 -11.1 12
02:25 1010 29.83 840 24.81 4.3 39.8 33 -10.5 13.1
02:30 1010 29.83 840 24.81 4.2 39.6 33 -10.6 13
02:35 1010 29.83 839 24.78 3.8 38.8 34 -10.9 12.4
02:40 1010 29.83 839 24.78 3.9 39.1 33 -11.1 12
02:45 1010 29.83 839 24.78 4 39.2 33 -10.9 12.3
02:50 1010 29.83 839 24.78 4.1 39.3 32 -11.1 12.1
02:55 1010 29.83 839 24.78 4.2 39.5 33 -10.8 12.5
03:00 1010 29.83 839 24.78 4.2 39.5 32 -11 12.1
03:05 1010 29.83 839 24.78 4.1 39.4 32 -11.1 11.9
03:10 1010 29.83 839 24.78 4.1 39.4 33 -10.9 12.3
03:15 1010 29.83 839 24.78 4 39.2 33 -11 12.2
03:20 1009 29.8 839 24.78 3.9 39 34 -10.7 12.7
03:25 1009 29.8 839 24.78 3.4 38.1 40 -9 15.8
03:30 1009 29.8 838 24.75 2.4 36.4 44 -8.5 16.6
03:35 1009 29.8 838 24.75 1.9 35.4 45 -8.9 16.1
03:40 1009 29.8 838 24.75 1.8 35.2 45 -9 15.9
03:45 1009 29.8 838 24.75 1.8 35.2 45 -8.8 16.1
03:50 1009 29.8 838 24.75 1.8 35.2 46 -8.6 16.5
03:55 1009 29.8 838 24.75 1.7 35 46 -8.7 16.4
04:00 1009 29.8 838 24.75 1.7 35 46 -8.6 16.5
04:05 1009 29.8 838 24.75 1.6 34.8 48 -8.4 16.9
04:10 1009 29.8 838 24.75 1.4 34.6 48 -8.4 16.9
04:15 1009 29.8 838 24.75 1.3 34.4 49 -8.3 17
04:20 1009 29.8 838 24.75 1.2 34.1 48 -8.7 16.4
04:25 1009 29.8 838 24.75 1.2 34.2 47 -8.8 16.2
04:30 1009 29.8 838 24.75 1.3 34.4 46 -9 15.8
04:35 1009 29.8 838 24.75 1.5 34.7 44 -9.5 14.9
04:40 1009 29.8 838 24.75 1.7 35 44 -9.4 15.1
04:45 1009 29.8 838 24.75 1.8 35.2 44 -9.3 15.3
04:50 1009 29.8 838 24.75 1.8 35.2 44 -9.1 15.6
04:55 1008 29.77 838 24.75 1.9 35.5 40 -10.4 13.3
05:00 1008 29.77 838 24.75 2.6 36.7 34 -11.6 11.2
05:05 1008 29.77 838 24.75 3.9 39.1 32 -11.3 11.7
05:10 1009 29.8 838 24.75 4.3 39.7 33 -10.8 12.6
05:15 1008 29.77 838 24.75 4 39.2 33 -10.9 12.4
05:20 1008 29.77 838 24.75 3.9 39 34 -10.4 13.2
05:25 1008 29.77 838 24.75 3.6 38.5 33 -11.1 12
05:30 1008 29.77 838 24.75 3.8 38.8 34 -10.5 13
05:35 1008 29.77 837 24.72 3.8 38.8 34 -10.7 12.8
05:40 1008 29.77 837 24.72 3.7 38.7 34 -10.8 12.6
05:45 1008 29.77 837 24.72 3.8 38.9 33 -11 12.1
05:50 1008 29.77 837 24.72 3.8 38.8 33 -11.2 11.8
05:55 1008 29.77 837 24.72 3.8 38.8 32 -11.4 11.5
06:00 1008 29.77 837 24.72 3.9 39 32 -11.5 11.4
06:05 1008 29.77 837 24.72 3.9 39 31 -11.9 10.6
06:10 1007 29.74 837 24.72 3.8 38.9 32 -11.6 11.1
06:15 1007 29.74 837 24.72 3.9 38.9 31 -11.8 10.7
06:20 1007 29.74 837 24.72 3.9 39.1 32 -11.4 11.6
06:25 1007 29.74 837 24.72 3.8 38.9 31 -11.8 10.8
06:30 1007 29.74 836 24.69 3.8 38.9 31 -11.6 11.1
06:35 1007 29.74 836 24.69 3.9 39.1 32 -11.5 11.4
06:40 1007 29.74 836 24.69 3.8 38.8 33 -11.1 12
06:45 1007 29.74 836 24.69 3.8 38.9 32 -11.5 11.4
06:50 1007 29.74 836 24.69 3.9 39 33 -11.2 11.9
06:55 1007 29.74 836 24.69 4.2 39.5 32 -11.2 11.9
07:00 1007 29.74 836 24.69 4 39.3 34 -10.6 12.9
07:05 1007 29.74 836 24.69 3.7 38.7 33 -10.9 12.3
07:10 1007 29.74 836 24.69 3.8 38.9 30 -12.2 10
07:15 1007 29.74 836 24.69 4.2 39.5 32 -11.3 11.6
07:20 1007 29.74 836 24.69 4.1 39.4 32 -11.1 12
07:25 1007 29.74 836 24.69 4 39.2 33 -11.1 12.1
07:30 1007 29.74 836 24.69 3.4 38.2 36 -10.3 13.5
07:35 1007 29.74 836 24.69 2.7 36.9 39 -10.1 13.9
07:40 1007 29.74 836 24.69 2.2 35.9 42 -9.5 14.8
07:45 1007 29.74 836 24.69 1.7 35.1 44 -9.4 15
07:50 1007 29.74 836 24.69 1.4 34.5 46 -9.1 15.6
07:55 1007 29.74 836 24.69 1.2 34.1 44 -9.9 14.2
08:00 1007 29.74 836 24.69 1.3 34.4 42 -10.2 13.6
08:05 1007 29.74 836 24.69 1.5 34.8 38 -11.5 11.4
08:10 1006 29.71 836 24.69 2.2 36 38 -10.9 12.5
08:15 1006 29.71 836 24.69 2.3 36.1 36 -11.2 11.8
08:20 1006 29.71 836 24.69 2.3 36.1 35 -11.5 11.2
08:25 1006 29.71 835 24.66 2.4 36.2 36 -11.4 11.5
08:30 1006 29.71 835 24.66 2.3 36.1 36 -11.5 11.3
08:35 1006 29.71 835 24.66 2.3 36.2 35 -11.5 11.3
08:40 1006 29.71 835 24.66 2.4 36.4 35 -11.5 11.2
08:45 1006 29.71 835 24.66 2.5 36.5 35 -11.3 11.6
08:50 1006 29.71 835 24.66 2.7 36.9 35 -11.4 11.4
08:55 1006 29.71 835 24.66 3.2 37.7 32 -12 10.4
09:00 1005 29.68 835 24.66 3.5 38.3 31 -11.9 10.5
09:05 1006 29.71 835 24.66 3.5 38.3 32 -11.6 11.1
09:10 1006 29.71 835 24.66 3.5 38.2 33 -11.5 11.4
09:15 1006 29.71 835 24.66 3.5 38.2 32 -11.6 11.1
09:20 1005 29.68 835 24.66 3.4 38.1 33 -11.6 11.1
09:25 1005 29.68 835 24.66 3.3 37.9 34 -11 12.1
09:30 1005 29.68 834 24.63 3.2 37.7 34 -11.1 12.1
09:35 1005 29.68 834 24.63 3 37.3 36 -10.8 12.6
09:40 1005 29.68 834 24.63 2.8 37 36 -11 12.3
09:45 1005 29.68 834 24.63 2.7 36.9 36 -10.8 12.5
09:50 1005 29.68 834 24.63 3 37.5 35 -10.8 12.5
09:55 1005 29.68 834 24.63 3.5 38.2 34 -11.1 12
10:00 1005 29.68 834 24.63 4.5 40.2 27 -12.8 9
10:05 1005 29.68 834 24.63 5.3 41.5 29 -11.3 11.6
10:10 1005 29.68 834 24.63 5.1 41.1 29 -11.7 11
10:15 1004 29.65 834 24.63 4.9 40.9 25 -13.4 7.9
10:20 1004 29.65 834 24.63 5.1 41.1 25 -13.3 8.1
10:25 1004 29.65 834 24.63 5.1 41.1 27 -12.6 9.3
10:30 1004 29.65 834 24.63 4.9 40.9 27 -12.4 9.7
10:35 1004 29.65 834 24.63 5 41 27 -12.4 9.7
10:40 1004 29.65 834 24.63 5.1 41.2 29 -11.4 11.6
10:45 1004 29.65 834 24.63 5 41 31 -10.9 12.4
10:50 1004 29.65 834 24.63 4.6 40.2 31 -11 12.2
10:55 1004 29.65 834 24.63 4.7 40.5 32 -10.8 12.6
11:00 1004 29.65 833 24.6 5.2 41.4 27 -12.5 9.6
11:05 1004 29.65 833 24.6 5.5 41.9 25 -12.8 8.9
11:10 1004 29.65 833 24.6 5.5 42 24 -13.4 8
11:15 1004 29.65 833 24.6 5.8 42.4 27 -12 10.3
11:20 1004 29.65 833 24.6 5.6 42.1 25 -12.9 8.8
11:25 1003 29.62 833 24.6 5.7 42.2 25 -12.8 8.9
11:30 1003 29.62 833 24.6 5.7 42.2 26 -12.3 9.9
11:35 1003 29.62 832 24.57 5.9 42.6 26 -12.2 10
11:40 1003 29.62 832 24.57 5.8 42.5 24 -13.2 8.3
11:45 1003 29.62 832 24.57 6 42.8 25 -12.8 8.9
11:50 1003 29.62 832 24.57 5.8 42.4 26 -12.6 9.4
11:55 1002 29.59 831 24.54 6 42.9 25 -12.8 9
12:00 1002 29.59 831 24.54 6.5 43.7 24 -12.5 9.4
12:05 1002 29.59 831 24.54 6.5 43.8 24 -12.4 9.7
12:10 1002 29.59 831 24.54 6.5 43.6 26 -11.7 10.9
12:15 1002 29.59 831 24.54 6.9 44.4 24 -12.1 10.2
12:20 1002 29.59 831 24.54 7.5 45.6 25 -11.4 11.5
12:25 1002 29.59 831 24.54 7.5 45.6 26 -10.7 12.7
12:30 1001 29.56 831 24.54 6.7 44 29 -10.3 13.4
12:35 1001 29.56 831 24.54 5.6 42.1 34 -9.2 15.4
12:40 1001 29.56 831 24.54 5.4 41.7 32 -10 14.1
12:45 1001 29.56 830 24.51 5.4 41.8 36 -8.4 16.8
12:50 1001 29.56 830 24.51 5 41 36 -8.9 15.9
12:55 1001 29.56 830 24.51 5.2 41.4 38 -7.9 17.7
13:00 1001 29.56 830 24.51 5 41 35 -9.4 15.1
13:05 1000 29.53 830 24.51 5.2 41.4 36 -8.8 16.2
13:10 1000 29.53 829 24.48 5.5 41.9 35 -8.9 16
13:15 1000 29.53 829 24.48 5.4 41.8 36 -8.4 16.9
13:20 1000 29.53 829 24.48 5.4 41.7 34 -9.4 15.1
13:25 1000 29.53 829 24.48 5.3 41.6 37 -8.1 17.4
13:30 999 29.5 829 24.48 5.1 41.2 37 -8.3 17
13:35 999 29.5 829 24.48 5.3 41.5 37 -8.4 16.9
13:40 999 29.5 828 24.45 5.1 41.2 38 -8.2 17.3
13:45 999 29.5 828 24.45 5.2 41.3 39 -7.6 18.3
13:50 999 29.5 828 24.45 5.3 41.5 38 -8.1 17.5
13:55 999 29.5 828 24.45 5.4 41.7 36 -8.7 16.4
14:00 999 29.5 828 24.45 5.5 41.9 35 -8.9 15.9
14:05 998 29.47 828 24.45 5.6 42.1 35 -8.7 16.4
14:10 998 29.47 828 24.45 5.6 42.1 35 -8.5 16.7
14:15 998 29.47 827 24.42 5.6 42.1 37 -7.8 18
14:20 998 29.47 827 24.42 5.6 42.1 37 -7.9 17.9
14:25 998 29.47 827 24.42 5.7 42.3 40 -7 19.4
14:30 998 29.47 827 24.42 5.6 42 38 -7.6 18.3
14:35 998 29.47 827 24.42 5.6 42.2 40 -7 19.5
14:40 998 29.47 827 24.42 5.4 41.7 45 -5.6 21.9
14:45 998 29.47 827 24.42 5.5 41.9 40 -7 19.4
14:50 998 29.47 827 24.42 5.6 42.1 40 -6.9 19.5
14:55 998 29.47 827 24.42 5.6 42.2 42 -6.2 20.9
15:00 998 29.47 827 24.42 5.5 41.9 43 -6.2 20.8
15:05 998 29.47 827 24.42 5.4 41.8 43 -6.2 20.9
15:10 998 29.47 827 24.42 5.3 41.6 44 -5.8 21.5
15:15 998 29.47 827 24.42 5.1 41.3 43 -6.4 20.5
15:20 998 29.47 827 24.42 5.2 41.4 46 -5.4 22.3
15:25 998 29.47 827 24.42 4.9 40.8 49 -5 23
15:30 998 29.47 827 24.42 4.7 40.5 47 -5.6 21.9
15:35 998 29.47 827 24.42 4.7 40.4 49 -5 22.9
15:40 998 29.47 827 24.42 4.7 40.5 49 -5.1 22.8
15:45 998 29.47 828 24.45 4.5 40.2 52 -4.5 23.9
15:50 998 29.47 828 24.45 4.2 39.5 53 -4.6 23.7
15:55 998 29.47 828 24.45 4.2 39.5 53 -4.6 23.8
16:00 998 29.47 827 24.42 4.1 39.5 54 -4.4 24.1
16:05 998 29.47 827 24.42 4 39.2 55 -4.1 24.6
16:10 998 29.47 827 24.42 4.1 39.4 53 -4.6 23.7
16:15 998 29.47 827 24.42 4.1 39.3 56 -4 24.8
16:20 998 29.47 827 24.42 4.1 39.4 55 -4.1 24.6
16:25 998 29.47 827 24.42 4.1 39.3 54 -4.5 23.9
16:30 998 29.47 827 24.42 4.2 39.6 54 -4.2 24.5
16:35 998 29.47 827 24.42 4 39.1 57 -3.8 25.1
16:40 998 29.47 827 24.42 4.1 39.4 55 -4.1 24.6
16:45 998 29.47 827 24.42 4.2 39.6 55 -4 24.7
16:50 998 29.47 827 24.42 4.2 39.6 53 -4.5 23.9
16:55 998 29.47 827 24.42 4.4 39.9 52 -4.5 23.8
17:00 997 29.44 827 24.42 4.4 40 52 -4.6 23.7
17:05 997 29.44 826 24.39 4.5 40.1 50 -5 23
17:10 997 29.44 826 24.39 4.6 40.4 50 -4.9 23.2
17:15 997 29.44 826 24.39 4.8 40.6 50 -4.9 23.2
17:20 997 29.44 826 24.39 4.9 40.8 48 -5.1 22.8
17:25 997 29.44 826 24.39 4.8 40.7 48 -5.2 22.7
17:30 997 29.44 826 24.39 5 40.9 48 -5.3 22.5
17:35 997 29.44 826 24.39 5.1 41.3 46 -5.5 22.1
17:40 997 29.44 826 24.39 5.1 41.2 49 -4.6 23.6
17:45 997 29.44 826 24.39 4.9 40.9 48 -5.2 22.6
17:50 997 29.44 826 24.39 4.9 40.8 48 -5.1 22.8
17:55 997 29.44 826 24.39 4.9 40.8 50 -4.7 23.5
18:00 997 29.44 826 24.39 4.7 40.5 51 -4.6 23.7
18:05 997 29.44 826 24.39 4.7 40.5 51 -4.6 23.7
18:10 997 29.44 826 24.39 4.7 40.4 51 -4.7 23.5
18:15 997 29.44 826 24.39 4.6 40.4 50 -4.9 23.1
18:20 996 29.41 826 24.39 4.9 40.8 50 -4.8 23.4
18:25 996 29.41 825 24.36 4.9 40.7 51 -4.4 24.1
18:30 996 29.41 826 24.39 4.6 40.3 54 -3.9 25
18:35 996 29.41 826 24.39 4.4 39.9 54 -4.1 24.7
18:40 996 29.41 826 24.39 4.2 39.6 54 -4.3 24.3
18:45 996 29.41 826 24.39 4.2 39.5 56 -3.7 25.3
18:50 996 29.41 825 24.36 4.2 39.6 52 -4.7 23.5
18:55 996 29.41 825 24.36 4.5 40.1 53 -4.1 24.6
19:00 996 29.41 825 24.36 4.4 39.9 53 -4.5 24
19:05 996 29.41 825 24.36 4.3 39.8 55 -3.8 25.1
19:10 996 29.41 825 24.36 4.3 39.7 56 -3.8 25.1
19:15 996 29.41 825 24.36 4 39.1 55 -4.1 24.5
19:20 996 29.41 825 24.36 4.2 39.6 55 -4.1 24.5
19:25 996 29.41 825 24.36 4.4 40 54 -4.1 24.6
19:30 995 29.38 825 24.36 4.7 40.5 49 -5.2 22.7
19:35 995 29.38 824 24.33 5.2 41.4 48 -4.8 23.4
19:40 995 29.38 824 24.33 5.1 41.3 51 -4.2 24.5
19:45 995 29.38 824 24.33 5 41 52 -4.1 24.6
19:50 995 29.38 824 24.33 4.9 40.7 53 -4 24.9
19:55 995 29.38 824 24.33 4.6 40.4 55 -3.6 25.5
20:00 995 29.38 824 24.33 4.4 39.9 59 -2.9 26.7
20:05 995 29.38 824 24.33 4 39.2 61 -2.9 26.8
20:10 995 29.38 824 24.33 4.1 39.4 57 -3.7 25.3
20:15 995 29.38 824 24.33 4.3 39.8 56 -3.7 25.4
20:20 995 29.38 824 24.33 4.4 39.9 56 -3.6 25.6
20:25 995 29.38 824 24.33 4.4 39.9 57 -3.4 25.8
20:30 994 29.35 824 24.33 4.3 39.7 56 -3.8 25.2
20:35 994 29.35 824 24.33 4.2 39.5 56 -3.8 25.1
20:40 994 29.35 824 24.33 4.1 39.4 56 -3.9 24.9
20:45 994 29.35 823 24.3 4 39.1 57 -3.7 25.4
20:50 994 29.35 823 24.3 3.9 39 58 -3.7 25.3
20:55 994 29.35 823 24.3 4 39.2 57 -3.7 25.4
21:00 994 29.35 823 24.3 3.9 39.1 58 -3.5 25.6
21:05 994 29.35 823 24.3 4 39.2 55 -4.2 24.4
21:10 994 29.35 823 24.3 4.2 39.6 56 -3.7 25.3
21:15 994 29.35 823 24.3 3.9 39 58 -3.7 25.4
21:20 994 29.35 823 24.3 3.8 38.8 58 -3.7 25.4
21:25 994 29.35 823 24.3 3.8 38.8 60 -3.3 26
21:30 994 29.35 823 24.3 3.6 38.5 60 -3.3 26
21:35 994 29.35 823 24.3 3.6 38.4 59 -3.7 25.3
21:40 993 29.32 823 24.3 3.9 39 58 -3.7 25.4
21:45 993 29.32 823 24.3 3.8 38.8 60 -3.2 26.2
21:50 993 29.32 822 24.27 4 39.1 55 -4.3 24.3
21:55 993 29.32 822 24.27 4.5 40 56 -3.7 25.4
22:00 993 29.32 822 24.27 4.7 40.4 54 -4 24.9
22:05 993 29.32 822 24.27 4.8 40.7 55 -3.5 25.6
22:10 993 29.32 822 24.27 4.8 40.7 57 -3 26.6
22:15 993 29.32 822 24.27 4.8 40.6 56 -3.2 26.3
22:20 993 29.32 822 24.27 4.8 40.7 54 -3.7 25.4
22:25 993 29.32 822 24.27 5 41.1 52 -4 24.9
22:30 993 29.32 822 24.27 5.2 41.4 53 -3.7 25.4
22:35 992 29.29 822 24.27 5.1 41.2 53 -3.7 25.3
22:40 992 29.29 821 24.24 5.1 41.1 52 -3.9 25.1
22:45 992 29.29 821 24.24 5.2 41.4 50 -4.4 24.1
22:50 992 29.29 821 24.24 5.2 41.4 54 -3.4 25.8
22:55 992 29.29 821 24.24 4.9 40.8 56 -3.1 26.4
23:00 992 29.29 821 24.24 4.7 40.4 56 -3.4 25.9
23:05 992 29.29 821 24.24 4.8 40.6 56 -3.4 25.9
23:10 992 29.29 821 24.24 4.8 40.6 54 -3.7 25.4
23:15 992 29.29 821 24.24 5 41 53 -3.7 25.3
23:20 991 29.26 821 24.24 5 41.1 52 -3.9 25
23:25 991 29.26 821 24.24 5.1 41.3 52 -3.9 24.9
23:30 991 29.26 820 24.21 5.2 41.4 50 -4.3 24.3
23:35 991 29.26 820 24.21 5.4 41.6 52 -3.7 25.3
23:40 991 29.26 820 24.21 5.2 41.4 52 -3.9 24.9
23:45 991 29.26 820 24.21 5.2 41.3 52 -3.9 24.9
23:50 991 29.26 820 24.21 5 40.9 53 -3.8 25.1
23:55 991 29.26 820 24.21 4.8 40.7 53 -4 24.7
24:00 991 29.26 820 24.21 4.9 40.8 53 -3.9 25